Jaffrey, New Hampshire
Current Conditions -  °F | °C
As of 8:52 AM on Saturday 22 Nov 2014 (Local Time) from KAFN Reporting Station
Clear Clear  
Wind Chill: 15°   Ceiling: Unl
Heat Index: 23°   Visibility: 10mi
Dew Point: 11°   Wind: 7mph
Humidity: 60%   Direction: NA
Pressure: 30.3"   Gusts: NA
Location:  42.81°N, 72.02°W
Report Text: KAFN 221352Z AUTO VRB06KT 10SM CLR M05/M12 A3030 RMK AO2 SLP282 T10501117
Loading
Personal Weather Stations






























Interactive Weather Map New forecast layout! Learn more

10-Day Weather Forecast

Advertisements
Track Severe Weather on mobile